sensor_id;sensor_type;location;lat;lon;timestamp;pressure;altitude;pressure_sealevel;temperature;humidity
49461;BME280;35355;49.198;-0.368;2022-08-30T11:31:50;101419.88;;;22.84;58.07
49461;BME280;35355;49.198;-0.368;2022-08-30T11:38:13;101421.03;;;22.83;58.68
49461;BME280;35355;49.198;-0.368;2022-08-30T11:42:12;101419.22;;;22.78;58.60
49461;BME280;35355;49.198;-0.368;2022-08-30T11:44:48;101421.69;;;22.80;59.14
49461;BME280;35355;49.198;-0.368;2022-08-30T11:50:08;101421.84;;;22.75;58.71
49461;BME280;35355;49.198;-0.368;2022-08-30T11:53:09;101421.84;;;22.75;58.59
49461;BME280;35355;49.198;-0.368;2022-08-30T11:56:51;101427.41;;;22.75;59.09
49461;BME280;35355;49.198;-0.368;2022-08-30T11:59:31;101420.03;;;22.70;59.23
49461;BME280;35355;49.198;-0.368;2022-08-30T12:02:51;101433.47;;;22.68;59.15
49461;BME280;35355;49.198;-0.368;2022-08-30T12:10:47;101415.13;;;22.67;59.04
49461;BME280;35355;49.198;-0.368;2022-08-30T12:16:20;101422.00;;;22.70;59.51
49461;BME280;35355;49.198;-0.368;2022-08-30T12:18:52;101432.50;;;22.73;59.04
49461;BME280;35355;49.198;-0.368;2022-08-30T12:24:02;101425.59;;;22.70;58.95
49461;BME280;35355;49.198;-0.368;2022-08-30T12:26:32;101417.59;;;22.69;59.20
49461;BME280;35355;49.198;-0.368;2022-08-30T12:29:15;101425.28;;;22.72;58.90
49461;BME280;35355;49.198;-0.368;2022-08-30T12:34:33;101427.41;;;22.75;58.60
49461;BME280;35355;49.198;-0.368;2022-08-30T12:37:03;101429.69;;;22.73;58.31
49461;BME280;35355;49.198;-0.368;2022-08-30T12:39:40;101416.94;;;22.72;58.63
49461;BME280;35355;49.198;-0.368;2022-08-30T12:42:21;101410.56;;;22.71;58.69
49461;BME280;35355;49.198;-0.368;2022-08-30T12:44:49;101412.19;;;22.72;58.27
49461;BME280;35355;49.198;-0.368;2022-08-30T12:47:23;101416.25;;;22.75;58.42
49461;BME280;35355;49.198;-0.368;2022-08-30T12:49:50;101424.94;;;22.73;57.79
49461;BME280;35355;49.198;-0.368;2022-08-30T12:52:33;101412.03;;;22.69;58.13
49461;BME280;35355;49.198;-0.368;2022-08-30T12:55:20;101408.25;;;22.65;57.76
49461;BME280;35355;49.198;-0.368;2022-08-30T12:58:05;101414.31;;;22.67;58.10
49461;BME280;35355;49.198;-0.368;2022-08-30T13:00:36;101415.97;;;22.68;57.63
49461;BME280;35355;49.198;-0.368;2022-08-30T13:03:35;101433.16;;;22.70;57.72
49461;BME280;35355;49.198;-0.368;2022-08-30T13:06:02;101427.25;;;22.71;57.16
49461;BME280;35355;49.198;-0.368;2022-08-30T13:08:36;101429.22;;;22.71;57.06
49461;BME280;35355;49.198;-0.368;2022-08-30T13:18:48;101433.63;;;22.72;55.77
49461;BME280;35355;49.198;-0.368;2022-08-30T13:21:21;101423.34;;;22.72;56.03
49461;BME280;35355;49.198;-0.368;2022-08-30T13:23:48;101432.97;;;22.75;55.75
49461;BME280;35355;49.198;-0.368;2022-08-30T13:26:14;101430.69;;;22.77;55.55
49461;BME280;35355;49.198;-0.368;2022-08-30T13:31:18;101415.31;;;22.71;55.78
49461;BME280;35355;49.198;-0.368;2022-08-30T13:33:43;101423.16;;;22.69;55.84
49461;BME280;35355;49.198;-0.368;2022-08-30T13:36:12;101406.44;;;22.69;55.00
49461;BME280;35355;49.198;-0.368;2022-08-30T13:38:37;101412.53;;;22.71;55.28
49461;BME280;35355;49.198;-0.368;2022-08-30T13:41:03;101421.84;;;22.75;54.93
49461;BME280;35355;49.198;-0.368;2022-08-30T13:43:28;101434.94;;;22.74;54.75
49461;BME280;35355;49.198;-0.368;2022-08-30T13:45:54;101415.31;;;22.71;54.11
49461;BME280;35355;49.198;-0.368;2022-08-30T13:48:21;101410.41;;;22.68;54.49
49461;BME280;35355;49.198;-0.368;2022-08-30T13:50:46;101408.25;;;22.65;54.34
49461;BME280;35355;49.198;-0.368;2022-08-30T14:11:18;101388.06;;;22.06;55.23
49461;BME280;35355;49.198;-0.368;2022-08-30T14:13:43;101397.72;;;22.09;55.12
49461;BME280;35355;49.198;-0.368;2022-08-30T14:16:09;101396.41;;;22.15;55.35
49461;BME280;35355;49.198;-0.368;2022-08-30T14:18:34;101389.22;;;22.23;55.83
49461;BME280;35355;49.198;-0.368;2022-08-30T14:21:00;101395.94;;;22.31;55.07
49461;BME280;35355;49.198;-0.368;2022-08-30T14:23:26;101395.34;;;22.34;55.10
49461;BME280;35355;49.198;-0.368;2022-08-30T14:25:52;101392.06;;;22.32;55.44
49461;BME280;35355;49.198;-0.368;2022-08-30T14:28:18;101396.97;;;22.35;56.14
49461;BME280;35355;49.198;-0.368;2022-08-30T14:30:44;101402.69;;;22.38;56.48
49461;BME280;35355;49.198;-0.368;2022-08-30T14:33:09;101387.31;;;22.41;56.39
49461;BME280;35355;49.198;-0.368;2022-08-30T14:35:35;101392.38;;;22.39;56.88
49461;BME280;35355;49.198;-0.368;2022-08-30T14:38:00;101395.16;;;22.39;56.34
49461;BME280;35355;49.198;-0.368;2022-08-30T14:40:26;101394.69;;;22.37;55.86
49461;BME280;35355;49.198;-0.368;2022-08-30T14:42:51;101398.94;;;22.34;56.15
49461;BME280;35355;49.198;-0.368;2022-08-30T14:45:17;101389.78;;;22.34;56.07
49461;BME280;35355;49.198;-0.368;2022-08-30T14:47:43;101393.03;;;22.36;56.18
49461;BME280;35355;49.198;-0.368;2022-08-30T14:50:08;101385.19;;;22.38;56.62
49461;BME280;35355;49.198;-0.368;2022-08-30T14:52:34;101379.47;;;22.43;57.17
49461;BME280;35355;49.198;-0.368;2022-08-30T14:55:00;101383.25;;;22.47;56.59
49461;BME280;35355;49.198;-0.368;2022-08-30T14:57:26;101392.72;;;22.46;57.23
49461;BME280;35355;49.198;-0.368;2022-08-30T14:59:52;101387.16;;;22.46;56.57
49461;BME280;35355;49.198;-0.368;2022-08-30T15:02:17;101389.47;;;22.44;56.49
49461;BME280;35355;49.198;-0.368;2022-08-30T15:04:43;101378.97;;;22.41;56.24
49461;BME280;35355;49.198;-0.368;2022-08-30T15:07:09;101379.78;;;22.41;55.80
49461;BME280;35355;49.198;-0.368;2022-08-30T15:09:34;101375.03;;;22.42;55.62
49461;BME280;35355;49.198;-0.368;2022-08-30T15:12:01;101370.63;;;22.41;55.71
49461;BME280;35355;49.198;-0.368;2022-08-30T15:14:29;101372.25;;;22.42;55.48
49461;BME280;35355;49.198;-0.368;2022-08-30T15:16:57;101372.25;;;22.42;55.71
49461;BME280;35355;49.198;-0.368;2022-08-30T15:19:23;101373.41;;;22.41;55.38
49461;BME280;35355;49.198;-0.368;2022-08-30T15:21:49;101358.84;;;22.44;54.99
49461;BME280;35355;49.198;-0.368;2022-08-30T15:24:18;101377.16;;;22.45;54.73
49461;BME280;35355;49.198;-0.368;2022-08-30T15:26:43;101368.81;;;22.45;54.78
49461;BME280;35355;49.198;-0.368;2022-08-30T15:29:10;101363.09;;;22.41;54.44
49461;BME280;35355;49.198;-0.368;2022-08-30T15:31:37;101377.50;;;22.43;54.51
49461;BME280;35355;49.198;-0.368;2022-08-30T15:34:05;101361.94;;;22.42;54.61
49461;BME280;35355;49.198;-0.368;2022-08-30T15:36:30;101365.38;;;22.39;54.52
49461;BME280;35355;49.198;-0.368;2022-08-30T15:38:56;101369.00;;;22.40;54.40
49461;BME280;35355;49.198;-0.368;2022-08-30T15:41:23;101367.03;;;22.40;54.30
49461;BME280;35355;49.198;-0.368;2022-08-30T15:43:49;101368.66;;;22.41;53.97
49461;BME280;35355;49.198;-0.368;2022-08-30T15:48:45;101351.81;;;22.38;54.73
49461;BME280;35355;49.198;-0.368;2022-08-30T15:51:11;101358.84;;;22.35;55.10
49461;BME280;35355;49.198;-0.368;2022-08-30T15:53:36;101360.31;;;22.33;55.08
49461;BME280;35355;49.198;-0.368;2022-08-30T15:56:02;101355.06;;;22.31;55.09
49461;BME280;35355;49.198;-0.368;2022-08-30T15:58:27;101352.28;;;22.31;55.66
49461;BME280;35355;49.198;-0.368;2022-08-30T16:00:53;101364.88;;;22.29;55.62
49461;BME280;35355;49.198;-0.368;2022-08-30T16:03:18;101365.19;;;22.27;56.27
49461;BME280;35355;49.198;-0.368;2022-08-30T16:05:44;101349.63;;;22.26;55.93
49461;BME280;35355;49.198;-0.368;2022-08-30T16:08:09;101352.75;;;22.24;56.68
49461;BME280;35355;49.198;-0.368;2022-08-30T16:10:37;101347.50;;;22.23;56.25
49461;BME280;35355;49.198;-0.368;2022-08-30T16:13:03;101342.78;;;22.23;56.04
49461;BME280;35355;49.198;-0.368;2022-08-30T16:15:29;101346.72;;;22.22;55.95
49461;BME280;35355;49.198;-0.368;2022-08-30T16:17:54;101336.72;;;22.21;56.11
49461;BME280;35355;49.198;-0.368;2022-08-30T16:20:19;101345.06;;;22.21;56.36
49461;BME280;35355;49.198;-0.368;2022-08-30T16:22:45;101344.59;;;22.19;56.13
49461;BME280;35355;49.198;-0.368;2022-08-30T16:25:10;101348.16;;;22.20;56.47
49461;BME280;35355;49.198;-0.368;2022-08-30T16:27:35;101345.38;;;22.20;56.65
49461;BME280;35355;49.198;-0.368;2022-08-30T16:30:06;101347.84;;;22.21;56.67
49461;BME280;35355;49.198;-0.368;2022-08-30T16:32:31;101351.47;;;22.22;57.12
49461;BME280;35355;49.198;-0.368;2022-08-30T16:34:57;101349.81;;;22.21;56.82
49461;BME280;35355;49.198;-0.368;2022-08-30T16:37:22;101351.78;;;22.20;57.19
49461;BME280;35355;49.198;-0.368;2022-08-30T16:39:48;101344.59;;;22.19;56.99
49461;BME280;35355;49.198;-0.368;2022-08-30T16:42:13;101346.84;;;22.17;56.88
49461;BME280;35355;49.198;-0.368;2022-08-30T16:44:39;101340.47;;;22.17;56.86
49461;BME280;35355;49.198;-0.368;2022-08-30T16:47:04;101340.00;;;22.15;57.14
49461;BME280;35355;49.198;-0.368;2022-08-30T16:49:30;101337.88;;;22.12;57.40
49461;BME280;35355;49.198;-0.368;2022-08-30T16:51:55;101342.59;;;22.11;57.59
49461;BME280;35355;49.198;-0.368;2022-08-30T16:54:21;101352.41;;;22.08;57.77
49461;BME280;35355;49.198;-0.368;2022-08-30T16:56:47;101340.00;;;22.06;58.09
49461;BME280;35355;49.198;-0.368;2022-08-30T16:59:12;101358.94;;;22.04;58.68
49461;BME280;35355;49.198;-0.368;2022-08-30T17:01:39;101354.03;;;22.01;58.60
49461;BME280;35355;49.198;-0.368;2022-08-30T17:04:06;101338.84;;;21.98;59.01
49461;BME280;35355;49.198;-0.368;2022-08-30T17:06:32;101354.69;;;21.98;59.26
49461;BME280;35355;49.198;-0.368;2022-08-30T17:08:58;101351.91;;;21.98;59.75
49461;BME280;35355;49.198;-0.368;2022-08-30T17:11:24;101345.53;;;21.97;60.05
49461;BME280;35355;49.198;-0.368;2022-08-30T17:13:49;101346.53;;;21.93;60.64
49461;BME280;35355;49.198;-0.368;2022-08-30T17:16:14;101338.31;;;21.87;61.24
49461;BME280;35355;49.198;-0.368;2022-08-30T17:18:40;101345.19;;;21.90;61.32
49461;BME280;35355;49.198;-0.368;2022-08-30T17:21:05;101339.97;;;21.88;61.64
49461;BME280;35355;49.198;-0.368;2022-08-30T17:23:31;101348.63;;;21.87;62.10
49461;BME280;35355;49.198;-0.368;2022-08-30T17:25:56;101351.41;;;21.87;62.08
49461;BME280;35355;49.198;-0.368;2022-08-30T17:28:22;101352.88;;;21.84;62.53
49461;BME280;35355;49.198;-0.368;2022-08-30T17:30:48;101351.53;;;21.82;62.70
49461;BME280;35355;49.198;-0.368;2022-08-30T17:33:13;101349.41;;;21.79;63.17
49461;BME280;35355;49.198;-0.368;2022-08-30T17:35:39;101342.56;;;21.76;63.47
49461;BME280;35355;49.198;-0.368;2022-08-30T17:38:05;101373.94;;;21.77;63.73
49461;BME280;35355;49.198;-0.368;2022-08-30T17:40:30;101361.50;;;21.74;63.51
49461;BME280;35355;49.198;-0.368;2022-08-30T17:42:55;101353.34;;;21.69;63.66
49461;BME280;35355;49.198;-0.368;2022-08-30T17:45:21;101356.75;;;21.66;63.95
49461;BME280;35355;49.198;-0.368;2022-08-30T17:47:46;101354.59;;;21.63;64.37
49461;BME280;35355;49.198;-0.368;2022-08-30T17:50:12;101352.66;;;21.63;64.45
49461;BME280;35355;49.198;-0.368;2022-08-30T17:55:04;101356.72;;;21.57;64.41
49461;BME280;35355;49.198;-0.368;2022-08-30T17:57:30;101355.72;;;21.53;64.39
49461;BME280;35355;49.198;-0.368;2022-08-30T17:59:55;101360.44;;;21.52;64.35
49461;BME280;35355;49.198;-0.368;2022-08-30T18:02:21;101369.38;;;21.49;64.59
49461;BME280;35355;49.198;-0.368;2022-08-30T18:04:46;101373.84;;;21.50;64.71
49461;BME280;35355;49.198;-0.368;2022-08-30T18:07:13;101370.56;;;21.48;64.53
49461;BME280;35355;49.198;-0.368;2022-08-30T18:09:40;101378.38;;;21.46;64.58
49461;BME280;35355;49.198;-0.368;2022-08-30T18:12:07;101368.75;;;21.44;64.92
49461;BME280;35355;49.198;-0.368;2022-08-30T18:14:33;101369.88;;;21.43;64.71
49461;BME280;35355;49.198;-0.368;2022-08-30T18:16:58;101369.06;;;21.42;64.81
49461;BME280;35355;49.198;-0.368;2022-08-30T18:19:26;101380.47;;;21.41;64.75
49461;BME280;35355;49.198;-0.368;2022-08-30T18:21:52;101379.66;;;21.40;65.12
49461;BME280;35355;49.198;-0.368;2022-08-30T18:24:18;101390.28;;;21.38;65.17
49461;BME280;35355;49.198;-0.368;2022-08-30T18:26:43;101383.06;;;21.37;65.12
49461;BME280;35355;49.198;-0.368;2022-08-30T18:29:09;101386.16;;;21.35;65.31
49461;BME280;35355;49.198;-0.368;2022-08-30T18:31:35;101388.44;;;21.33;65.40
49461;BME280;35355;49.198;-0.368;2022-08-30T18:34:00;101391.56;;;21.32;65.63
49461;BME280;35355;49.198;-0.368;2022-08-30T18:36:26;101395.13;;;21.32;65.41
49461;BME280;35355;49.198;-0.368;2022-08-30T18:38:52;101404.59;;;21.31;65.44
49461;BME280;35355;49.198;-0.368;2022-08-30T18:41:17;101404.91;;;21.30;65.62
49461;BME280;35355;49.198;-0.368;2022-08-30T18:43:43;101398.34;;;21.26;65.61
49461;BME280;35355;49.198;-0.368;2022-08-30T18:46:10;101408.97;;;21.24;65.89
49461;BME280;35355;49.198;-0.368;2022-08-30T18:48:36;101403.25;;;21.20;66.20
49461;BME280;35355;49.198;-0.368;2022-08-30T18:51:02;101408.13;;;21.14;66.30
49461;BME280;35355;49.198;-0.368;2022-08-30T18:53:28;101409.56;;;21.12;66.56
49461;BME280;35355;49.198;-0.368;2022-08-30T18:55:53;101415.75;;;21.09;66.91
49461;BME280;35355;49.198;-0.368;2022-08-30T18:58:19;101417.81;;;21.03;67.09
49461;BME280;35355;49.198;-0.368;2022-08-30T19:00:45;101424.00;;;21.00;67.41
49461;BME280;35355;49.198;-0.368;2022-08-30T19:03:10;101422.19;;;20.95;67.42
49461;BME280;35355;49.198;-0.368;2022-08-30T19:05:36;101419.72;;;20.94;67.76
49461;BME280;35355;49.198;-0.368;2022-08-30T19:08:03;101415.94;;;20.90;68.03
49461;BME280;35355;49.198;-0.368;2022-08-30T19:10:28;101421.00;;;20.88;68.14
49461;BME280;35355;49.198;-0.368;2022-08-30T19:12:54;101418.34;;;20.82;68.53
49461;BME280;35355;49.198;-0.368;2022-08-30T19:15:20;101421.09;;;20.82;68.54
49461;BME280;35355;49.198;-0.368;2022-08-30T19:17:46;101423.38;;;20.80;68.73
49461;BME280;35355;49.198;-0.368;2022-08-30T19:20:15;101436.72;;;20.78;68.70
49461;BME280;35355;49.198;-0.368;2022-08-30T19:22:43;101440.66;;;20.77;69.22
49461;BME280;35355;49.198;-0.368;2022-08-30T19:25:09;101437.38;;;20.75;69.01
49461;BME280;35355;49.198;-0.368;2022-08-30T19:27:35;101441.25;;;20.74;69.33
49461;BME280;35355;49.198;-0.368;2022-08-30T19:30:00;101438.81;;;20.73;69.49
49461;BME280;35355;49.198;-0.368;2022-08-30T19:32:26;101446.81;;;20.74;69.57
49461;BME280;35355;49.198;-0.368;2022-08-30T19:34:51;101446.00;;;20.74;69.56
49461;BME280;35355;49.198;-0.368;2022-08-30T19:37:17;101447.66;;;20.75;69.59
49461;BME280;35355;49.198;-0.368;2022-08-30T19:39:43;101444.03;;;20.74;69.52
49461;BME280;35355;49.198;-0.368;2022-08-30T19:42:09;101450.75;;;20.73;69.49
49461;BME280;35355;49.198;-0.368;2022-08-30T19:44:35;101450.44;;;20.75;69.57
49461;BME280;35355;49.198;-0.368;2022-08-30T19:47:01;101445.69;;;20.75;69.74
49461;BME280;35355;49.198;-0.368;2022-08-30T19:49:29;101454.31;;;20.74;69.58
49461;BME280;35355;49.198;-0.368;2022-08-30T19:51:54;101449.72;;;20.69;69.72
49461;BME280;35355;49.198;-0.368;2022-08-30T19:54:21;101450.22;;;20.71;69.89
49461;BME280;35355;49.198;-0.368;2022-08-30T19:56:47;101456.41;;;20.68;69.69
49461;BME280;35355;49.198;-0.368;2022-08-30T19:59:12;101453.63;;;20.68;69.72
49461;BME280;35355;49.198;-0.368;2022-08-30T20:01:37;101458.34;;;20.67;69.71
49461;BME280;35355;49.198;-0.368;2022-08-30T20:04:03;101452.00;;;20.67;69.70
49461;BME280;35355;49.198;-0.368;2022-08-30T20:06:31;101451.16;;;20.66;69.80
49461;BME280;35355;49.198;-0.368;2022-08-30T20:08:57;101455.06;;;20.65;69.73
49461;BME280;35355;49.198;-0.368;2022-08-30T20:11:22;101458.16;;;20.64;69.64
49461;BME280;35355;49.198;-0.368;2022-08-30T20:13:47;101455.16;;;20.60;69.75
49461;BME280;35355;49.198;-0.368;2022-08-30T20:16:14;101457.13;;;20.60;69.99
49461;BME280;35355;49.198;-0.368;2022-08-30T20:18:41;101459.38;;;20.58;70.03
49461;BME280;35355;49.198;-0.368;2022-08-30T20:21:07;101457.22;;;20.55;70.13
49461;BME280;35355;49.198;-0.368;2022-08-30T20:23:33;101468.13;;;20.51;70.26
49461;BME280;35355;49.198;-0.368;2022-08-30T20:26:00;101471.41;;;20.53;70.17
49461;BME280;35355;49.198;-0.368;2022-08-30T20:28:28;101470.06;;;20.50;70.26
49461;BME280;35355;49.198;-0.368;2022-08-30T20:30:54;101469.06;;;20.46;70.13
49461;BME280;35355;49.198;-0.368;2022-08-30T20:33:21;101474.94;;;20.45;70.26
49461;BME280;35355;49.198;-0.368;2022-08-30T20:35:47;101479.63;;;20.44;70.36
49461;BME280;35355;49.198;-0.368;2022-08-30T20:38:13;101479.63;;;20.44;70.75
49461;BME280;35355;49.198;-0.368;2022-08-30T20:40:46;101477.72;;;20.45;70.92
49461;BME280;35355;49.198;-0.368;2022-08-30T20:43:11;101481.78;;;20.47;70.91
49461;BME280;35355;49.198;-0.368;2022-08-30T20:45:36;101481.47;;;20.49;71.31
49461;BME280;35355;49.198;-0.368;2022-08-30T20:48:02;101482.00;;;20.51;71.40
49461;BME280;35355;49.198;-0.368;2022-08-30T20:50:29;101479.72;;;20.53;72.21
49461;BME280;35355;49.198;-0.368;2022-08-30T20:52:55;101485.28;;;20.53;72.12
49461;BME280;35355;49.198;-0.368;2022-08-30T20:55:20;101492.47;;;20.54;71.91
49461;BME280;35355;49.198;-0.368;2022-08-30T20:57:45;101496.38;;;20.53;71.66
49461;BME280;35355;49.198;-0.368;2022-08-30T21:00:12;101485.09;;;20.49;71.90
49461;BME280;35355;49.198;-0.368;2022-08-30T21:02:39;101493.72;;;20.48;71.73
49461;BME280;35355;49.198;-0.368;2022-08-30T21:05:06;101495.16;;;20.45;71.92
49461;BME280;35355;49.198;-0.368;2022-08-30T21:07:32;101487.47;;;20.42;71.72
49461;BME280;35355;49.198;-0.368;2022-08-30T21:09:57;101486.13;;;20.40;71.85
49461;BME280;35355;49.198;-0.368;2022-08-30T21:12:24;101487.78;;;20.41;72.09
49461;BME280;35355;49.198;-0.368;2022-08-30T21:14:50;101480.88;;;20.38;71.87
49461;BME280;35355;49.198;-0.368;2022-08-30T21:17:15;101479.53;;;20.36;72.08
49461;BME280;35355;49.198;-0.368;2022-08-30T21:19:42;101481.81;;;20.33;72.31
49461;BME280;35355;49.198;-0.368;2022-08-30T21:22:07;101486.56;;;20.33;72.06
49461;BME280;35355;49.198;-0.368;2022-08-30T21:24:33;101485.41;;;20.34;72.40
49461;BME280;35355;49.198;-0.368;2022-08-30T21:26:59;101482.94;;;20.32;72.48
49461;BME280;35355;49.198;-0.368;2022-08-30T21:29:26;101489.31;;;20.33;72.37
49461;BME280;35355;49.198;-0.368;2022-08-30T21:31:53;101480.78;;;20.29;72.52
49461;BME280;35355;49.198;-0.368;2022-08-30T21:34:18;101487.19;;;20.30;72.58
49461;BME280;35355;49.198;-0.368;2022-08-30T21:36:44;101481.63;;;20.30;72.58
49461;BME280;35355;49.198;-0.368;2022-08-30T21:39:12;101485.53;;;20.29;72.50
49461;BME280;35355;49.198;-0.368;2022-08-30T21:41:38;101491.06;;;20.29;72.53
49461;BME280;35355;49.198;-0.368;2022-08-30T21:44:06;101488.91;;;20.26;72.30
49461;BME280;35355;49.198;-0.368;2022-08-30T21:46:33;101481.72;;;20.25;72.70
49461;BME280;35355;49.198;-0.368;2022-08-30T21:49:00;101474.53;;;20.24;72.79
49461;BME280;35355;49.198;-0.368;2022-08-30T21:51:27;101478.94;;;20.25;72.75
49461;BME280;35355;49.198;-0.368;2022-08-30T21:53:53;101471.75;;;20.24;72.92
49461;BME280;35355;49.198;-0.368;2022-08-30T21:56:20;101477.31;;;20.24;72.51
49461;BME280;35355;49.198;-0.368;2022-08-30T21:58:46;101476.81;;;20.22;72.74
49461;BME280;35355;49.198;-0.368;2022-08-30T22:01:17;101475.69;;;20.23;72.47
49461;BME280;35355;49.198;-0.368;2022-08-30T22:03:44;101472.38;;;20.21;72.82
49461;BME280;35355;49.198;-0.368;2022-08-30T22:06:11;101477.63;;;20.22;72.69
49461;BME280;35355;49.198;-0.368;2022-08-30T22:08:38;101474.03;;;20.22;72.71
49461;BME280;35355;49.198;-0.368;2022-08-30T22:11:05;101472.38;;;20.21;72.55
49461;BME280;35355;49.198;-0.368;2022-08-30T22:13:33;101474.66;;;20.19;72.68
49461;BME280;35355;49.198;-0.368;2022-08-30T22:15:58;101481.00;;;20.19;72.56
49461;BME280;35355;49.198;-0.368;2022-08-30T22:18:24;101482.44;;;20.16;72.56
49461;BME280;35355;49.198;-0.368;2022-08-30T22:20:49;101473.63;;;20.14;72.53
49461;BME280;35355;49.198;-0.368;2022-08-30T22:23:15;101479.78;;;20.11;72.49
49461;BME280;35355;49.198;-0.368;2022-08-30T22:25:40;101477.09;;;20.06;72.60
49461;BME280;35355;49.198;-0.368;2022-08-30T22:28:05;101485.72;;;20.05;72.67
49461;BME280;35355;49.198;-0.368;2022-08-30T22:30:31;101481.66;;;20.02;72.69
49461;BME280;35355;49.198;-0.368;2022-08-30T22:32:56;101480.31;;;20.00;72.65
49461;BME280;35355;49.198;-0.368;2022-08-30T22:35:21;101481.22;;;19.95;72.87
49461;BME280;35355;49.198;-0.368;2022-08-30T22:37:47;101491.78;;;19.93;72.80
49461;BME280;35355;49.198;-0.368;2022-08-30T22:40:13;101484.94;;;19.90;72.91
49461;BME280;35355;49.198;-0.368;2022-08-30T22:42:39;101478.84;;;19.88;73.03
49461;BME280;35355;49.198;-0.368;2022-08-30T22:45:05;101488.00;;;19.89;73.01
49461;BME280;35355;49.198;-0.368;2022-08-30T22:47:30;101483.56;;;19.88;73.13
49461;BME280;35355;49.198;-0.368;2022-08-30T22:49:55;101482.22;;;19.85;73.16
49461;BME280;35355;49.198;-0.368;2022-08-30T22:52:22;101478.66;;;19.85;73.19
49461;BME280;35355;49.198;-0.368;2022-08-30T22:54:47;101473.41;;;19.83;73.36
49461;BME280;35355;49.198;-0.368;2022-08-30T22:57:13;101474.84;;;19.80;73.55
49461;BME280;35355;49.198;-0.368;2022-08-30T22:59:40;101475.97;;;19.79;73.69
49461;BME280;35355;49.198;-0.368;2022-08-30T23:02:06;101474.63;;;19.77;73.56
49461;BME280;35355;49.198;-0.368;2022-08-30T23:04:31;101485.69;;;19.77;73.62
49461;BME280;35355;49.198;-0.368;2022-08-30T23:06:59;101483.25;;;19.75;73.73
49461;BME280;35355;49.198;-0.368;2022-08-30T23:09:25;101485.47;;;19.73;73.75
49461;BME280;35355;49.198;-0.368;2022-08-30T23:11:52;101476.34;;;19.73;74.07
49461;BME280;35355;49.198;-0.368;2022-08-30T23:14:18;101474.41;;;19.73;73.80
49461;BME280;35355;49.198;-0.368;2022-08-30T23:16:43;101471.63;;;19.73;73.94
49461;BME280;35355;49.198;-0.368;2022-08-30T23:19:09;101479.13;;;19.73;73.92
49461;BME280;35355;49.198;-0.368;2022-08-30T23:21:34;101459.50;;;19.69;74.11
49461;BME280;35355;49.198;-0.368;2022-08-30T23:23:59;101461.16;;;19.70;74.10
49461;BME280;35355;49.198;-0.368;2022-08-30T23:26:46;101464.53;;;19.67;74.06
49461;BME280;35355;49.198;-0.368;2022-08-30T23:29:31;101467.63;;;19.66;74.25
49461;BME280;35355;49.198;-0.368;2022-08-30T23:32:15;101460.44;;;19.64;74.27
49461;BME280;35355;49.198;-0.368;2022-08-30T23:34:59;101471.81;;;19.63;74.23
49461;BME280;35355;49.198;-0.368;2022-08-30T23:37:43;101462.47;;;19.59;74.39
49461;BME280;35355;49.198;-0.368;2022-08-30T23:40:27;101463.31;;;19.59;74.48
49461;BME280;35355;49.198;-0.368;2022-08-30T23:43:11;101477.16;;;19.59;74.56
49461;BME280;35355;49.198;-0.368;2022-08-30T23:45:55;101477.47;;;19.58;74.62
49461;BME280;35355;49.198;-0.368;2022-08-30T23:48:40;101478.28;;;19.58;74.56
49461;BME280;35355;49.198;-0.368;2022-08-30T23:51:24;101487.69;;;19.57;74.59
49461;BME280;35355;49.198;-0.368;2022-08-30T23:54:08;101480.84;;;19.55;74.47
49461;BME280;35355;49.198;-0.368;2022-08-30T23:56:52;101484.44;;;19.55;74.42
49461;BME280;35355;49.198;-0.368;2022-08-30T23:59:36;101479.69;;;19.56;74.47
